createdAt,value
2023-07-25T00:05:17.236Z,4.73
2023-07-25T00:35:20.173Z,6.17
2023-07-25T01:05:23.791Z,5.27
2023-07-25T01:35:26.759Z,6.00
2023-07-25T02:05:30.583Z,5.73
2023-07-25T02:35:33.621Z,6.00
2023-07-25T03:05:37.747Z,7.47
2023-07-25T03:35:40.732Z,8.27
2023-07-25T04:05:44.572Z,9.17
2023-07-25T04:35:48.488Z,8.37
2023-07-25T05:05:51.745Z,9.63
2023-07-25T05:35:54.744Z,8.77
2023-07-25T06:05:58.132Z,8.90
2023-07-25T06:36:01.088Z,5.47
2023-07-25T07:06:04.551Z,5.63
2023-07-25T07:36:07.514Z,5.00
2023-07-25T08:06:13.283Z,7.87
2023-07-25T08:36:16.386Z,5.43
2023-07-25T09:06:19.906Z,6.53
2023-07-25T09:36:22.878Z,3.80
2023-07-25T10:06:26.391Z,4.87
2023-07-25T10:36:29.384Z,2.70
2023-07-25T11:06:33.411Z,3.40
2023-07-25T11:36:36.381Z,3.30
2023-07-25T12:06:41.045Z,4.57
2023-07-25T12:36:44.133Z,1.93
2023-07-25T13:06:47.604Z,3.63
2023-07-25T13:36:50.581Z,2.57
2023-07-25T14:06:54.494Z,3.27
2023-07-25T14:36:57.467Z,4.67
2023-07-25T15:07:01.143Z,3.10
2023-07-25T15:37:04.410Z,4.47
2023-07-25T16:07:08.096Z,4.40
2023-07-25T16:37:11.074Z,3.83
2023-07-25T17:07:14.198Z,4.27
2023-07-25T17:37:17.854Z,4.53
2023-07-25T18:07:21.098Z,4.25
2023-07-25T18:37:24.568Z,6.73
2023-07-25T19:07:27.613Z,5.20
2023-07-25T19:37:31.112Z,6.07
2023-07-25T20:07:34.521Z,4.47
2023-07-25T20:37:37.439Z,4.80
2023-07-25T21:07:40.954Z,5.35
2023-07-25T21:37:43.965Z,6.47
2023-07-25T22:07:47.652Z,5.70
2023-07-25T22:37:51.163Z,5.30
2023-07-25T23:07:54.183Z,7.70
2023-07-25T23:37:57.868Z,8.25
